createdAt,value
2023-01-19T00:01:54.868Z,11.57
2023-01-19T00:06:12.611Z,11.56
2023-01-19T00:10:30.135Z,11.56
2023-01-19T00:14:47.703Z,11.55
2023-01-19T00:19:05.216Z,11.55
2023-01-19T00:23:23.107Z,11.50
2023-01-19T00:27:40.707Z,11.53
2023-01-19T00:31:58.225Z,11.50
2023-01-19T00:36:16.858Z,11.50
2023-01-19T00:40:34.908Z,11.49
2023-01-19T00:44:52.424Z,11.49
2023-01-19T00:49:10.643Z,11.45
2023-01-19T00:53:32.669Z,11.46
2023-01-19T00:57:50.595Z,11.46
2023-01-19T01:02:08.731Z,11.46
2023-01-19T01:06:26.323Z,11.46
2023-01-19T01:10:43.878Z,11.44
2023-01-19T01:15:01.859Z,11.38
2023-01-19T01:19:19.675Z,11.43
2023-01-19T01:23:37.117Z,11.40
2023-01-19T01:27:55.659Z,11.39
2023-01-19T01:32:16.320Z,11.39
2023-01-19T01:36:34.299Z,11.38
2023-01-19T01:40:51.969Z,11.36
2023-01-19T01:45:31.294Z,11.34
2023-01-19T01:49:51.592Z,11.34
2023-01-19T01:54:20.110Z,11.34
2023-01-19T01:58:38.988Z,11.34
2023-01-19T02:02:56.642Z,11.34
2023-01-19T02:07:42.892Z,11.32
2023-01-19T02:12:18.939Z,11.28
2023-01-19T02:16:38.013Z,11.27
2023-01-19T02:21:22.562Z,11.29
2023-01-19T02:25:40.627Z,11.26
2023-01-19T02:29:59.703Z,11.26
2023-01-19T02:34:20.865Z,11.28
2023-01-19T02:38:40.293Z,11.25
2023-01-19T02:43:01.182Z,11.26
2023-01-19T02:47:19.950Z,11.20
2023-01-19T02:51:37.275Z,11.18
2023-01-19T02:56:18.635Z,11.22
2023-01-19T03:01:15.455Z,11.22
2023-01-19T03:06:02.165Z,11.20
2023-01-19T03:10:53.352Z,11.17
2023-01-19T03:15:37.540Z,11.17
2023-01-19T03:19:55.412Z,11.18
2023-01-19T03:24:15.623Z,11.15
2023-01-19T03:28:36.439Z,11.16
2023-01-19T03:33:08.151Z,11.16
2023-01-19T03:37:26.598Z,11.09
2023-01-19T03:41:48.641Z,11.09
2023-01-19T03:46:07.739Z,11.11
2023-01-19T03:50:29.085Z,11.08
2023-01-19T03:54:46.556Z,11.12
2023-01-19T03:59:06.166Z,11.12
2023-01-19T04:03:23.720Z,11.10
2023-01-19T04:07:41.309Z,11.07
2023-01-19T04:11:58.942Z,11.08
2023-01-19T04:16:20.220Z,11.04
2023-01-19T04:20:38.052Z,11.06
2023-01-19T04:24:55.795Z,11.04
2023-01-19T04:29:14.571Z,11.06
2023-01-19T04:33:32.786Z,11.00
2023-01-19T04:37:50.280Z,11.01
2023-01-19T04:42:07.968Z,11.00
2023-01-19T04:46:25.483Z,10.95
2023-01-19T04:50:43.062Z,10.94
2023-01-19T04:55:06.203Z,10.96
2023-01-19T04:59:24.129Z,10.95
2023-01-19T05:03:41.678Z,10.92
2023-01-19T05:07:59.302Z,10.91
2023-01-19T05:12:16.828Z,10.93
2023-01-19T05:16:35.244Z,10.91
2023-01-19T05:20:52.609Z,10.86
2023-01-19T05:25:10.246Z,10.88
2023-01-19T05:29:28.009Z,10.87
2023-01-19T05:33:45.495Z,10.86
2023-01-19T05:38:03.157Z,10.84
2023-01-19T05:42:21.079Z,10.84
2023-01-19T05:46:39.951Z,10.88
2023-01-19T05:50:59.682Z,10.82
2023-01-19T05:55:17.193Z,10.84
2023-01-19T05:59:34.951Z,10.82
2023-01-19T06:03:52.551Z,11.86
2023-01-19T06:08:10.856Z,13.29
2023-01-19T06:12:28.469Z,13.90
2023-01-19T06:16:45.997Z,14.04
2023-01-19T06:21:07.691Z,13.80
2023-01-19T06:25:26.144Z,13.60
2023-01-19T06:29:43.732Z,12.98
2023-01-19T06:34:01.292Z,11.92
2023-01-19T06:38:19.744Z,13.08
2023-01-19T06:42:37.573Z,13.48
2023-01-19T06:47:15.764Z,13.45
2023-01-19T06:51:32.699Z,14.04
2023-01-19T06:55:50.362Z,14.35
2023-01-19T07:00:09.429Z,14.32
2023-01-19T07:04:27.347Z,13.33
2023-01-19T07:08:44.905Z,12.20
2023-01-19T07:13:02.953Z,13.41
2023-01-19T07:17:20.742Z,13.58
2023-01-19T07:21:37.947Z,14.09
2023-01-19T07:25:55.355Z,14.40
2023-01-19T07:30:16.206Z,14.51
2023-01-19T07:34:34.598Z,14.57
2023-01-19T07:38:52.095Z,13.70
2023-01-19T07:43:10.104Z,12.47
2023-01-19T07:47:27.719Z,13.72
2023-01-19T07:51:45.237Z,14.02
2023-01-19T07:56:02.885Z,14.23
2023-01-19T08:00:24.726Z,14.47
2023-01-19T08:04:43.680Z,14.78
2023-01-19T08:09:01.296Z,14.93
2023-01-19T08:13:19.073Z,13.87
2023-01-19T08:17:37.352Z,12.74
2023-01-19T08:21:56.666Z,13.94
2023-01-19T08:26:35.371Z,14.04
2023-01-19T08:30:55.898Z,14.43
2023-01-19T08:35:13.603Z,14.71
2023-01-19T08:39:31.201Z,14.94
2023-01-19T08:43:49.934Z,15.16
2023-01-19T08:48:08.023Z,13.93
2023-01-19T08:52:26.772Z,12.98
2023-01-19T08:56:44.499Z,14.15
2023-01-19T09:01:03.171Z,14.29
2023-01-19T09:05:21.949Z,14.59
2023-01-19T09:09:43.569Z,14.62
2023-01-19T09:14:01.590Z,14.99
2023-01-19T09:18:21.740Z,15.32
2023-01-19T09:22:40.814Z,14.28
2023-01-19T09:26:58.472Z,13.46
2023-01-19T09:31:16.728Z,14.58
2023-01-19T09:35:35.290Z,14.46
2023-01-19T09:39:53.275Z,14.70
2023-01-19T09:44:20.434Z,14.97
2023-01-19T09:48:57.997Z,15.05
2023-01-19T09:54:11.104Z,15.60
2023-01-19T09:58:29.294Z,14.10
2023-01-19T10:03:10.355Z,14.42
2023-01-19T10:08:29.603Z,14.81
2023-01-19T10:13:28.115Z,15.29
2023-01-19T10:18:00.809Z,14.54
2023-01-19T10:22:25.141Z,14.38
2023-01-19T10:26:56.920Z,14.25
2023-01-19T10:31:17.588Z,14.28
2023-01-19T10:35:38.142Z,14.29
2023-01-19T10:40:11.240Z,14.37
2023-01-19T10:44:35.645Z,14.36
2023-01-19T10:48:55.308Z,14.01
2023-01-19T10:53:22.924Z,13.56
2023-01-19T10:57:43.642Z,13.94
2023-01-19T11:02:04.355Z,14.09
2023-01-19T11:06:29.994Z,14.24
2023-01-19T11:10:55.862Z,14.27
2023-01-19T11:15:23.698Z,14.26
2023-01-19T11:19:41.597Z,14.25
2023-01-19T11:24:06.161Z,14.45
2023-01-19T11:28:37.639Z,13.81
2023-01-19T11:32:56.528Z,14.05
2023-01-19T11:37:17.565Z,14.17
2023-01-19T11:41:38.194Z,14.25
2023-01-19T11:45:57.929Z,14.25
2023-01-19T11:50:21.235Z,14.34
2023-01-19T11:54:55.988Z,14.33
2023-01-19T11:59:13.959Z,14.52
2023-01-19T12:03:39.585Z,13.69
2023-01-19T12:08:00.877Z,14.10
2023-01-19T12:12:32.369Z,14.24
2023-01-19T12:16:52.556Z,15.01
2023-01-19T12:21:10.623Z,15.04
2023-01-19T12:26:37.648Z,15.31
2023-01-19T12:30:55.925Z,15.96
2023-01-19T12:35:51.472Z,14.56
2023-01-19T12:40:28.646Z,14.54
2023-01-19T12:44:47.910Z,14.97
2023-01-19T12:49:29.805Z,15.12
2023-01-19T12:53:54.540Z,15.28
2023-01-19T12:58:25.428Z,15.50
2023-01-19T13:02:49.279Z,15.98
2023-01-19T13:07:10.778Z,15.90
2023-01-19T13:11:33.293Z,14.24
2023-01-19T13:15:55.594Z,15.14
2023-01-19T13:20:23.931Z,15.11
2023-01-19T13:25:14.092Z,15.40
2023-01-19T13:29:36.247Z,15.43
2023-01-19T13:34:00.303Z,15.59
2023-01-19T13:38:18.098Z,16.00
2023-01-19T13:42:40.459Z,15.16
2023-01-19T13:46:59.901Z,14.10
2023-01-19T13:51:19.121Z,15.34
2023-01-19T13:55:36.612Z,15.53
2023-01-19T14:00:13.086Z,15.62
2023-01-19T14:04:35.590Z,15.61
2023-01-19T14:09:17.753Z,15.88
2023-01-19T14:13:43.346Z,16.19
2023-01-19T14:18:19.475Z,14.65
2023-01-19T14:22:45.556Z,14.65
2023-01-19T14:27:19.036Z,15.50
2023-01-19T14:31:51.772Z,15.76
2023-01-19T14:36:25.551Z,15.76
2023-01-19T14:40:43.466Z,15.93
2023-01-19T14:45:04.545Z,16.20
2023-01-19T14:49:29.567Z,16.24
2023-01-19T14:53:52.935Z,14.34
2023-01-19T14:58:13.347Z,15.01
2023-01-19T15:02:30.893Z,15.33
2023-01-19T15:06:48.767Z,15.70
2023-01-19T15:11:35.337Z,15.76
2023-01-19T15:15:54.229Z,16.20
2023-01-19T15:20:19.278Z,16.50
2023-01-19T15:24:36.836Z,15.80
2023-01-19T15:28:56.556Z,14.31
2023-01-19T15:33:32.879Z,15.16
2023-01-19T15:37:51.075Z,15.68
2023-01-19T15:42:14.286Z,15.37
2023-01-19T15:46:32.387Z,14.99
2023-01-19T15:50:49.379Z,14.93
2023-01-19T15:55:11.625Z,14.91
2023-01-19T15:59:44.341Z,14.89
2023-01-19T16:04:05.738Z,14.29
2023-01-19T16:08:23.212Z,14.49
2023-01-19T16:12:40.891Z,14.63
2023-01-19T16:17:00.174Z,14.82
2023-01-19T16:21:17.989Z,14.79
2023-01-19T16:25:36.157Z,14.77
2023-01-19T16:29:53.637Z,14.86
2023-01-19T16:34:11.486Z,15.01
2023-01-19T16:38:29.272Z,14.22
2023-01-19T16:42:47.414Z,14.98
2023-01-19T16:47:05.154Z,15.57
2023-01-19T16:51:22.629Z,15.72
2023-01-19T16:55:42.006Z,15.69
2023-01-19T16:59:59.427Z,15.83
2023-01-19T17:04:18.647Z,15.83
2023-01-19T17:08:37.433Z,15.85
2023-01-19T17:12:55.314Z,15.84
2023-01-19T17:17:13.455Z,15.73
2023-01-19T17:21:31.923Z,15.88
2023-01-19T17:25:57.143Z,15.78
2023-01-19T17:30:15.008Z,15.68
2023-01-19T17:34:34.069Z,14.08
2023-01-19T17:38:53.847Z,14.60
2023-01-19T17:43:11.653Z,15.35
2023-01-19T17:47:29.113Z,15.59
2023-01-19T17:51:52.101Z,15.41
2023-01-19T17:56:13.664Z,15.08
2023-01-19T18:00:31.488Z,14.78
2023-01-19T18:04:48.956Z,14.82
2023-01-19T18:09:07.781Z,14.83
2023-01-19T18:13:26.179Z,13.98
2023-01-19T18:17:44.013Z,14.66
2023-01-19T18:22:02.116Z,14.69
2023-01-19T18:26:22.742Z,14.73
2023-01-19T18:30:40.474Z,14.80
2023-01-19T18:34:58.449Z,14.77
2023-01-19T18:39:16.129Z,15.03
2023-01-19T18:43:34.322Z,14.64
2023-01-19T18:47:52.374Z,13.97
2023-01-19T18:52:09.962Z,15.30
2023-01-19T18:56:28.022Z,15.65
2023-01-19T19:00:45.882Z,15.70
2023-01-19T19:05:03.729Z,15.80
2023-01-19T19:09:21.309Z,15.83
2023-01-19T19:13:39.005Z,15.78
2023-01-19T19:17:56.508Z,15.86
2023-01-19T19:22:15.118Z,15.84
2023-01-19T19:26:32.800Z,15.89
2023-01-19T19:30:52.890Z,15.00
2023-01-19T19:35:11.744Z,14.02
2023-01-19T19:39:29.975Z,15.23
2023-01-19T19:43:47.651Z,15.61
2023-01-19T19:48:05.399Z,15.69
2023-01-19T19:52:23.195Z,15.76
2023-01-19T19:56:41.014Z,15.82
2023-01-19T20:00:59.013Z,15.84
2023-01-19T20:05:16.658Z,15.87
2023-01-19T20:09:34.299Z,15.84
2023-01-19T20:13:52.144Z,15.29
2023-01-19T20:18:10.085Z,14.05
2023-01-19T20:22:27.777Z,15.03
2023-01-19T20:26:53.402Z,15.46
2023-01-19T20:31:24.576Z,15.65
2023-01-19T20:35:42.509Z,15.76
2023-01-19T20:40:00.324Z,15.76
2023-01-19T20:44:24.880Z,15.76
2023-01-19T20:48:42.860Z,15.84
2023-01-19T20:53:00.496Z,15.85
2023-01-19T20:57:18.655Z,15.88
2023-01-19T21:01:36.721Z,14.25
2023-01-19T21:05:54.333Z,14.72
2023-01-19T21:10:12.166Z,15.48
2023-01-19T21:14:29.673Z,15.73
2023-01-19T21:18:47.209Z,15.75
2023-01-19T21:23:04.715Z,15.83
2023-01-19T21:27:22.740Z,15.88
2023-01-19T21:31:41.491Z,15.80
2023-01-19T21:35:59.185Z,15.83
2023-01-19T21:40:16.897Z,15.85
2023-01-19T21:44:34.432Z,14.35
2023-01-19T21:48:51.935Z,14.69
2023-01-19T21:53:11.523Z,15.37
2023-01-19T21:57:28.985Z,15.69
2023-01-19T22:01:47.132Z,15.68
2023-01-19T22:06:07.474Z,15.74
2023-01-19T22:10:24.988Z,15.85
2023-01-19T22:14:42.755Z,15.83
2023-01-19T22:19:02.485Z,15.91
2023-01-19T22:23:20.270Z,15.90
2023-01-19T22:27:38.868Z,15.78
2023-01-19T22:31:56.483Z,14.47
2023-01-19T22:36:26.126Z,14.52
2023-01-19T22:40:43.825Z,15.37
2023-01-19T22:45:01.277Z,15.64
2023-01-19T22:49:18.973Z,15.65
2023-01-19T22:53:36.605Z,15.70
2023-01-19T22:57:54.118Z,15.74
2023-01-19T23:02:12.447Z,15.77
2023-01-19T23:06:32.751Z,15.77
2023-01-19T23:10:50.257Z,15.74
2023-01-19T23:15:08.483Z,15.87
2023-01-19T23:19:26.103Z,15.83
2023-01-19T23:23:44.622Z,15.19
2023-01-19T23:28:02.694Z,14.09
2023-01-19T23:32:20.365Z,14.88
2023-01-19T23:36:40.774Z,15.49
2023-01-19T23:40:58.256Z,15.60
2023-01-19T23:45:15.944Z,15.70
2023-01-19T23:49:33.430Z,15.76
2023-01-19T23:53:51.786Z,15.77
2023-01-19T23:58:09.395Z,15.75
